Time;durP1;ratioP1;P1;durP2;ratioP2;P2;SDS_P1;SDS_P2;PMS_P1;PMS_P2;Temp;Humidity;BMP_temperature;BMP_pressure;BME280_temperature;BME280_humidity;BME280_pressure;Samples;Min_cycle;Max_cycle;Signal;HPM_P1;HPM_P2
2022/08/30 00:03:46;;;;;;;10.30;8.93;;;;;;;;;;4969448;28;20188;-82
2022/08/30 00:06:50;;;;;;;10.47;8.67;;;;;;;;;;4981085;28;20194;-82
2022/08/30 00:09:54;;;;;;;9.27;8.20;;;;;;;;;;4977526;28;20712;-82
2022/08/30 00:12:58;;;;;;;9.87;8.27;;;;;;;;;;4988677;28;20213;-82
2022/08/30 00:16:05;;;;;;;9.47;8.43;;;;;;;;;;4977044;28;20182;-84
2022/08/30 00:19:09;;;;;;;9.87;8.87;;;;;;;;;;4999771;28;20174;-82
2022/08/30 00:22:14;;;;;;;12.83;8.23;;;;;;;;;;4976647;28;20206;-82
2022/08/30 00:25:18;;;;;;;12.13;8.30;;;;;;;;;;4977201;28;20541;-82
2022/08/30 00:28:22;;;;;;;9.47;8.43;;;;;;;;;;4976460;28;20199;-82
2022/08/30 00:31:27;;;;;;;10.73;9.00;;;;;;;;;;4988930;28;20226;-81
2022/08/30 00:34:31;;;;;;;10.37;8.90;;;;;;;;;;4989063;28;20198;-84
2022/08/30 00:37:35;;;;;;;10.20;8.63;;;;;;;;;;4988954;28;20182;-84
2022/08/30 00:40:43;;;;;;;12.63;8.27;;;;;;;;;;4987797;28;20245;-82
2022/08/30 00:43:47;;;;;;;9.70;8.17;;;;;;;;;;4988049;28;20538;-84
2022/08/30 00:46:51;;;;;;;10.40;9.30;;;;;;;;;;4988539;28;20216;-82
2022/08/30 00:49:56;;;;;;;11.83;8.20;;;;;;;;;;4988351;28;20182;-84
2022/08/30 00:53:06;;;;;;;9.87;8.83;;;;;;;;;;5000362;28;20214;-84
2022/08/30 00:56:11;;;;;;;9.77;8.77;;;;;;;;;;4977080;28;20194;-84
2022/08/30 00:59:16;;;;;;;10.60;9.30;;;;;;;;;;4988236;28;20206;-84
2022/08/30 01:02:22;;;;;;;12.30;8.87;;;;;;;;;;4987347;28;20237;-84
2022/08/30 01:05:27;;;;;;;10.83;8.60;;;;;;;;;;4998560;28;20664;-84
2022/08/30 01:08:31;;;;;;;11.53;8.80;;;;;;;;;;4987985;28;20191;-84
2022/08/30 01:11:36;;;;;;;9.07;8.17;;;;;;;;;;4987539;28;20226;-83
2022/08/30 01:14:41;;;;;;;11.63;8.37;;;;;;;;;;4987073;28;20178;-84
2022/08/30 01:17:46;;;;;;;11.00;8.70;;;;;;;;;;4976336;28;20182;-84
2022/08/30 01:21:07;;;;;;;11.00;9.23;;;;;;;;;;4988313;28;20567;-84
2022/08/30 01:24:12;;;;;;;10.53;9.27;;;;;;;;;;4987886;28;20652;-83
2022/08/30 01:27:17;;;;;;;13.20;8.63;;;;;;;;;;4987468;28;20187;-84
2022/08/30 01:30:22;;;;;;;10.90;9.43;;;;;;;;;;4976728;28;20195;-84
2022/08/30 01:33:27;;;;;;;12.83;9.73;;;;;;;;;;4998676;28;20228;-84
2022/08/30 01:36:34;;;;;;;13.57;10.00;;;;;;;;;;4998868;28;20189;-84
2022/08/30 01:39:39;;;;;;;12.23;9.13;;;;;;;;;;4987415;28;20640;-84
2022/08/30 01:42:43;;;;;;;14.27;10.13;;;;;;;;;;4998048;28;20533;-83
2022/08/30 01:45:47;;;;;;;13.20;10.53;;;;;;;;;;4987378;28;20204;-84
2022/08/30 01:48:55;;;;;;;15.90;10.77;;;;;;;;;;4986930;28;20213;-84
2022/08/30 01:52:00;;;;;;;16.53;10.20;;;;;;;;;;4998401;28;20220;-84
2022/08/30 01:55:05;;;;;;;12.17;9.63;;;;;;;;;;4987831;28;20198;-84
2022/08/30 01:58:10;;;;;;;11.83;9.70;;;;;;;;;;4986653;28;20198;-84
2022/08/30 02:01:18;;;;;;;14.03;9.87;;;;;;;;;;4997668;28;20217;-84
2022/08/30 02:04:25;;;;;;;14.67;10.20;;;;;;;;;;4986867;28;20170;-84
2022/08/30 02:07:29;;;;;;;11.47;9.40;;;;;;;;;;4986844;28;20198;-84
2022/08/30 02:10:33;;;;;;;11.67;9.73;;;;;;;;;;4997684;28;20189;-84
2022/08/30 02:13:40;;;;;;;11.17;9.37;;;;;;;;;;4986363;28;20212;-84
2022/08/30 02:16:44;;;;;;;11.70;9.83;;;;;;;;;;4997977;28;20174;-83
2022/08/30 02:19:48;;;;;;;17.37;10.30;;;;;;;;;;4997836;28;20193;-84
2022/08/30 02:22:54;;;;;;;12.37;10.37;;;;;;;;;;4986705;28;20206;-84
2022/08/30 02:25:58;;;;;;;12.23;9.20;;;;;;;;;;4986738;28;20652;-84
2022/08/30 02:29:04;;;;;;;11.33;9.80;;;;;;;;;;4987536;28;20189;-84
2022/08/30 02:32:08;;;;;;;12.00;9.17;;;;;;;;;;4997974;28;20228;-84
2022/08/30 02:35:12;;;;;;;13.13;9.60;;;;;;;;;;4986478;28;20205;-84
2022/08/30 02:38:16;;;;;;;12.97;11.00;;;;;;;;;;4986229;28;20178;-83
2022/08/30 02:41:22;;;;;;;12.50;10.83;;;;;;;;;;4997798;28;20228;-84
2022/08/30 02:44:26;;;;;;;15.10;9.93;;;;;;;;;;4987305;28;20592;-84
2022/08/30 02:47:31;;;;;;;12.47;9.77;;;;;;;;;;4975851;28;20190;-84
2022/08/30 02:50:39;;;;;;;10.97;9.70;;;;;;;;;;4997788;28;20650;-84
2022/08/30 02:53:43;;;;;;;11.67;9.93;;;;;;;;;;4990806;28;20215;-84
2022/08/30 02:56:48;;;;;;;11.37;9.63;;;;;;;;;;4979686;28;20182;-84
2022/08/30 02:59:52;;;;;;;15.40;11.20;;;;;;;;;;4990435;28;20193;-84
2022/08/30 03:02:57;;;;;;;10.93;9.80;;;;;;;;;;4990760;28;20181;-84
2022/08/30 03:06:02;;;;;;;15.10;10.00;;;;;;;;;;4978779;28;20185;-83
2022/08/30 03:09:06;;;;;;;15.17;11.23;;;;;;;;;;5001448;28;20549;-83
2022/08/30 03:12:11;;;;;;;14.30;9.97;;;;;;;;;;5000686;28;20386;-83
2022/08/30 03:15:15;;;;;;;11.53;9.73;;;;;;;;;;4989968;28;20175;-84
2022/08/30 03:18:21;;;;;;;14.27;9.73;;;;;;;;;;4990067;28;20190;-84
2022/08/30 03:21:26;;;;;;;11.90;9.33;;;;;;;;;;4989285;28;20213;-84
2022/08/30 03:24:31;;;;;;;9.80;8.77;;;;;;;;;;4989707;28;20181;-84
2022/08/30 03:27:35;;;;;;;10.93;9.63;;;;;;;;;;5000486;28;20178;-84
2022/08/30 03:30:39;;;;;;;12.23;9.53;;;;;;;;;;4989903;28;20222;-84
2022/08/30 03:33:43;;;;;;;10.00;9.00;;;;;;;;;;4990126;28;20225;-84
2022/08/30 03:36:48;;;;;;;11.93;9.20;;;;;;;;;;5036141;23;20233;-83
2022/08/30 03:39:53;;;;;;;10.93;9.50;;;;;;;;;;5015815;28;20180;-83
2022/08/30 03:42:58;;;;;;;14.23;9.77;;;;;;;;;;5003022;28;20174;-83
2022/08/30 03:46:02;;;;;;;12.80;9.17;;;;;;;;;;5014496;28;20223;-83
2022/08/30 03:49:07;;;;;;;13.70;8.37;;;;;;;;;;5013969;28;20178;-83
2022/08/30 03:52:11;;;;;;;10.80;8.37;;;;;;;;;;5036713;28;20675;-83
2022/08/30 03:55:16;;;;;;;10.00;9.00;;;;;;;;;;5022898;28;20202;-83
2022/08/30 03:58:20;;;;;;;11.47;9.87;;;;;;;;;;5024816;28;20191;-83
2022/08/30 04:01:25;;;;;;;11.63;9.77;;;;;;;;;;5023997;28;20224;-84
2022/08/30 04:04:29;;;;;;;12.03;9.90;;;;;;;;;;5009114;28;20204;-82
2022/08/30 04:07:34;;;;;;;27.87;10.50;;;;;;;;;;5021684;28;20567;-83
2022/08/30 04:10:38;;;;;;;11.20;10.00;;;;;;;;;;5011867;28;20208;-83
2022/08/30 04:13:43;;;;;;;11.23;10.10;;;;;;;;;;5009054;28;20220;-83
2022/08/30 04:16:48;;;;;;;11.67;9.37;;;;;;;;;;4987969;28;20225;-84
2022/08/30 04:19:54;;;;;;;10.90;9.50;;;;;;;;;;4977804;28;20207;-83
2022/08/30 04:22:58;;;;;;;12.10;9.33;;;;;;;;;;4988868;28;20187;-83
2022/08/30 04:26:03;;;;;;;12.83;8.97;;;;;;;;;;4999902;28;20225;-82
2022/08/30 04:29:07;;;;;;;11.57;10.13;;;;;;;;;;4988111;28;20190;-82
2022/08/30 04:32:11;;;;;;;11.67;8.47;;;;;;;;;;4989094;28;20208;-83
2022/08/30 04:35:15;;;;;;;10.80;8.47;;;;;;;;;;5005548;28;20220;-82
2022/08/30 04:38:20;;;;;;;12.93;9.57;;;;;;;;;;5005286;28;20177;-83
2022/08/30 04:41:24;;;;;;;9.40;8.40;;;;;;;;;;4993697;28;20181;-83
2022/08/30 04:44:30;;;;;;;11.90;8.47;;;;;;;;;;5015774;28;20197;-83
2022/08/30 04:47:35;;;;;;;9.37;8.47;;;;;;;;;;5004461;28;20204;-83
2022/08/30 04:50:39;;;;;;;9.60;8.33;;;;;;;;;;5015751;28;20189;-82
2022/08/30 04:53:49;;;;;;;11.27;8.40;;;;;;;;;;5016125;28;20549;-82
2022/08/30 04:56:53;;;;;;;13.10;9.10;;;;;;;;;;5004245;28;20222;-82
2022/08/30 04:59:57;;;;;;;13.27;9.70;;;;;;;;;;5004675;28;20675;-82
2022/08/30 05:03:02;;;;;;;14.03;9.67;;;;;;;;;;4993944;28;20177;-83
2022/08/30 05:06:10;;;;;;;11.13;9.10;;;;;;;;;;4992965;28;20591;-83
2022/08/30 05:09:15;;;;;;;12.83;8.90;;;;;;;;;;5004344;28;20193;-82
2022/08/30 05:12:19;;;;;;;22.70;9.23;;;;;;;;;;5004355;28;20181;-82
2022/08/30 05:15:23;;;;;;;17.37;9.90;;;;;;;;;;5015212;28;20234;-82
2022/08/30 05:18:27;;;;;;;18.90;10.67;;;;;;;;;;4992598;28;20564;-82
2022/08/30 05:21:32;;;;;;;13.27;9.27;;;;;;;;;;4992437;28;20572;-82
2022/08/30 05:24:36;;;;;;;13.87;10.00;;;;;;;;;;5015472;28;20651;-82
2022/08/30 05:27:40;;;;;;;14.43;9.50;;;;;;;;;;5004065;28;20188;-82
2022/08/30 05:30:44;;;;;;;14.40;9.07;;;;;;;;;;5003697;28;20210;-82
2022/08/30 05:33:50;;;;;;;15.10;10.03;;;;;;;;;;5003914;28;20236;-82
2022/08/30 05:36:54;;;;;;;17.40;9.57;;;;;;;;;;5015672;28;20240;-82
2022/08/30 05:39:58;;;;;;;15.80;10.37;;;;;;;;;;5014755;28;20178;-82
2022/08/30 05:43:02;;;;;;;18.20;9.90;;;;;;;;;;4992586;28;20536;-82
2022/08/30 05:46:09;;;;;;;11.87;9.90;;;;;;;;;;4992719;28;20217;-82
2022/08/30 05:49:14;;;;;;;12.80;9.60;;;;;;;;;;5003607;28;20190;-82
2022/08/30 05:52:18;;;;;;;13.00;9.87;;;;;;;;;;5003640;28;20548;-82
2022/08/30 05:55:23;;;;;;;12.27;9.87;;;;;;;;;;5002948;28;20220;-82
2022/08/30 05:58:28;;;;;;;13.40;9.50;;;;;;;;;;5003416;28;20646;-82
2022/08/30 06:01:40;;;;;;;10.87;9.73;;;;;;;;;;5003311;28;20196;-82
2022/08/30 06:04:44;;;;;;;14.67;9.83;;;;;;;;;;5014155;28;20193;-82
2022/08/30 06:07:48;;;;;;;12.00;9.57;;;;;;;;;;5003165;28;20192;-82
2022/08/30 06:10:52;;;;;;;12.53;10.30;;;;;;;;;;5014611;28;20670;-82
2022/08/30 06:13:56;;;;;;;12.80;10.07;;;;;;;;;;5014602;28;20228;-82
2022/08/30 06:17:00;;;;;;;15.87;10.57;;;;;;;;;;5013893;28;20228;-82
2022/08/30 06:20:04;;;;;;;16.73;11.87;;;;;;;;;;5002996;28;20192;-82
2022/08/30 06:23:10;;;;;;;14.17;11.50;;;;;;;;;;5014247;28;20648;-82
2022/08/30 06:26:14;;;;;;;17.53;11.97;;;;;;;;;;5013753;28;20216;-82
2022/08/30 06:29:20;;;;;;;13.07;11.30;;;;;;;;;;5002886;28;20193;-82
2022/08/30 06:32:24;;;;;;;13.00;10.20;;;;;;;;;;5003029;28;20656;-82
2022/08/30 06:35:28;;;;;;;12.37;10.20;;;;;;;;;;4991363;28;20255;-82
2022/08/30 06:38:33;;;;;;;15.53;9.97;;;;;;;;;;5002445;28;20192;-82
2022/08/30 06:41:39;;;;;;;11.10;9.70;;;;;;;;;;5013439;28;20193;-82
2022/08/30 06:44:54;;;;;;;16.90;11.87;;;;;;;;;;5002413;28;20548;-82
2022/08/30 06:47:58;;;;;;;14.00;10.27;;;;;;;;;;5014201;28;20189;-82
2022/08/30 06:51:03;;;;;;;17.50;13.80;;;;;;;;;;5002136;28;20209;-82
2022/08/30 06:54:09;;;;;;;14.80;12.77;;;;;;;;;;5014134;28;20232;-82
2022/08/30 06:57:13;;;;;;;16.70;12.13;;;;;;;;;;5002490;28;20224;-82
2022/08/30 07:00:17;;;;;;;18.10;14.37;;;;;;;;;;5002623;28;20192;-83
2022/08/30 07:03:22;;;;;;;22.07;12.97;;;;;;;;;;5002539;28;20184;-83
2022/08/30 07:06:28;;;;;;;16.77;13.27;;;;;;;;;;5014109;28;20248;-82
2022/08/30 07:09:32;;;;;;;19.50;13.30;;;;;;;;;;5014076;28;20192;-82
2022/08/30 07:12:36;;;;;;;14.33;11.97;;;;;;;;;;5002756;28;20184;-82
2022/08/30 07:15:42;;;;;;;13.13;11.27;;;;;;;;;;5002651;28;20236;-82
2022/08/30 07:18:55;;;;;;;12.77;10.80;;;;;;;;;;4991206;28;20208;-82
2022/08/30 07:22:00;;;;;;;12.57;11.27;;;;;;;;;;5014280;28;20213;-82
2022/08/30 07:25:04;;;;;;;12.37;10.47;;;;;;;;;;5014627;28;20196;-82
2022/08/30 07:28:09;;;;;;;17.40;12.90;;;;;;;;;;5003090;28;20220;-82
2022/08/30 07:31:16;;;;;;;16.17;11.90;;;;;;;;;;5014114;28;20189;-83
2022/08/30 07:34:20;;;;;;;19.13;11.30;;;;;;;;;;5002936;28;20556;-83
2022/08/30 07:37:25;;;;;;;14.13;11.03;;;;;;;;;;5002503;28;20235;-82
2022/08/30 07:40:29;;;;;;;95.60;19.47;;;;;;;;;;5006447;28;20209;-83
2022/08/30 07:43:35;;;;;;;14.43;10.63;;;;;;;;;;5006034;28;20201;-83
2022/08/30 07:46:40;;;;;;;14.87;10.63;;;;;;;;;;5016945;28;20224;-83
2022/08/30 07:49:44;;;;;;;16.73;12.57;;;;;;;;;;5016659;28;20209;-82
2022/08/30 07:52:48;;;;;;;13.20;11.50;;;;;;;;;;5016504;28;20552;-82
2022/08/30 07:55:53;;;;;;;12.40;11.10;;;;;;;;;;5005225;28;20239;-82
2022/08/30 07:58:57;;;;;;;16.50;11.03;;;;;;;;;;4993820;28;20197;-83
2022/08/30 08:02:01;;;;;;;11.47;9.90;;;;;;;;;;5016889;28;20670;-83
2022/08/30 08:05:07;;;;;;;12.43;11.00;;;;;;;;;;5004674;28;20187;-83
2022/08/30 08:08:12;;;;;;;11.00;9.53;;;;;;;;;;5016273;28;20664;-83
2022/08/30 08:11:23;;;;;;;13.03;10.27;;;;;;;;;;5005053;28;20184;-83
2022/08/30 08:14:27;;;;;;;12.50;9.93;;;;;;;;;;5016140;28;20218;-83
2022/08/30 08:17:31;;;;;;;9.47;8.47;;;;;;;;;;5016824;28;20209;-83
2022/08/30 08:20:36;;;;;;;10.63;8.53;;;;;;;;;;5005002;28;20182;-82
2022/08/30 08:23:40;;;;;;;9.93;8.50;;;;;;;;;;4993349;28;20195;-83
2022/08/30 08:26:44;;;;;;;12.40;8.57;;;;;;;;;;5004284;28;20697;-82
2022/08/30 08:29:48;;;;;;;11.63;7.90;;;;;;;;;;5015782;28;20212;-83
2022/08/30 08:32:52;;;;;;;25.03;9.87;;;;;;;;;;5004395;28;20199;-83
2022/08/30 08:35:57;;;;;;;7.93;6.40;;;;;;;;;;4992796;28;20601;-83
2022/08/30 08:39:03;;;;;;;11.10;7.82;;;;;;;;;;5004386;28;20189;-83
2022/08/30 08:42:31;;;;;;;7.35;6.60;;;;;;;;;;5015976;28;20188;-83
2022/08/30 08:45:50;;;;;;;10.32;6.68;;;;;;;;;;5015748;28;20224;-83
2022/08/30 08:49:00;;;;;;;7.30;6.28;;;;;;;;;;5004495;28;20187;-83
2022/08/30 08:55:28;;;;;;;8.50;6.38;;;;;;;;;;5015238;28;20233;-83
2022/08/30 08:58:41;;;;;;;10.05;6.10;;;;;;;;;;5004545;28;20186;-84
2022/08/30 09:01:46;;;;;;;7.45;5.78;;;;;;;;;;5004290;28;20193;-83
2022/08/30 09:04:56;;;;;;;7.63;6.25;;;;;;;;;;5004000;28;20659;-83
2022/08/30 09:08:04;;;;;;;5.80;5.30;;;;;;;;;;5015456;28;20191;-83
2022/08/30 09:11:19;;;;;;;7.93;4.50;;;;;;;;;;5004264;28;20185;-83
2022/08/30 09:14:26;;;;;;;7.07;4.88;;;;;;;;;;5004183;28;20182;-84
2022/08/30 09:17:48;;;;;;;4.70;4.28;;;;;;;;;;5004333;28;20186;-84
2022/08/30 09:20:53;;;;;;;5.72;4.50;;;;;;;;;;5015281;28;20186;-84
2022/08/30 09:24:04;;;;;;;5.30;4.80;;;;;;;;;;5014881;28;20181;-84
2022/08/30 09:27:21;;;;;;;5.78;4.78;;;;;;;;;;4992469;28;20213;-84
2022/08/30 09:30:29;;;;;;;5.53;4.80;;;;;;;;;;4993465;28;20186;-84
2022/08/30 09:33:35;;;;;;;9.57;4.90;;;;;;;;;;5004879;28;20178;-83
2022/08/30 09:36:48;;;;;;;5.80;4.47;;;;;;;;;;5036561;23;20582;-86
2022/08/30 09:39:52;;;;;;;5.25;4.75;;;;;;;;;;5011085;28;20185;-86
2022/08/30 09:43:00;;;;;;;7.72;4.30;;;;;;;;;;5022528;28;20185;-86
2022/08/30 09:46:08;;;;;;;5.00;4.13;;;;;;;;;;5010883;28;20217;-86
2022/08/30 09:49:35;;;;;;;8.13;4.95;;;;;;;;;;5033394;28;20185;-86
2022/08/30 09:52:51;;;;;;;4.65;3.78;;;;;;;;;;5021957;28;20177;-86
2022/08/30 09:56:37;;;;;;;5.72;5.07;;;;;;;;;;5022070;28;20699;-86
2022/08/30 10:00:04;;;;;;;8.60;4.50;;;;;;;;;;4974784;28;20205;-86
2022/08/30 10:03:19;;;;;;;4.22;3.83;;;;;;;;;;5021753;28;20177;-86
2022/08/30 10:06:48;;;;;;;4.50;4.10;;;;;;;;;;5021913;28;20696;-86
2022/08/30 10:10:01;;;;;;;5.68;3.90;;;;;;;;;;5022005;28;20176;-86
2022/08/30 10:13:17;;;;;;;5.70;4.53;;;;;;;;;;5010508;28;20643;-86
2022/08/30 10:16:51;;;;;;;7.45;4.25;;;;;;;;;;5021861;28;20569;-86
2022/08/30 10:20:17;;;;;;;5.53;4.63;;;;;;;;;;5021316;28;20197;-86
2022/08/30 10:23:28;;;;;;;6.25;4.55;;;;;;;;;;5033212;28;20633;-86
2022/08/30 10:26:38;;;;;;;5.78;4.18;;;;;;;;;;5021396;28;20217;-86
2022/08/30 10:29:50;;;;;;;10.30;4.70;;;;;;;;;;5032674;28;20181;-86
2022/08/30 10:33:05;;;;;;;5.95;4.18;;;;;;;;;;5021702;28;20188;-87
2022/08/30 10:36:12;;;;;;;6.82;5.00;;;;;;;;;;5032533;28;20229;-87
2022/08/30 10:39:22;;;;;;;7.00;4.22;;;;;;;;;;5021520;28;20182;-87
2022/08/30 10:42:32;;;;;;;9.00;4.20;;;;;;;;;;5021691;28;20177;-87
2022/08/30 10:45:41;;;;;;;7.88;4.97;;;;;;;;;;5021634;28;20178;-87
2022/08/30 10:48:47;;;;;;;6.50;3.92;;;;;;;;;;5021468;28;20628;-87
2022/08/30 10:51:58;;;;;;;4.18;3.78;;;;;;;;;;5021424;28;20647;-87
2022/08/30 10:55:09;;;;;;;6.13;3.92;;;;;;;;;;5017969;28;20201;-85
2022/08/30 10:58:15;;;;;;;4.75;3.97;;;;;;;;;;5033462;28;20511;-88
2022/08/30 11:01:57;;;;;;;5.05;4.05;;;;;;;;;;5032793;28;20205;-88
2022/08/30 11:05:26;;;;;;;4.15;3.75;;;;;;;;;;5018670;28;20213;-88
2022/08/30 11:08:52;;;;;;;4.55;4.05;;;;;;;;;;5009925;28;20519;-88
2022/08/30 11:11:59;;;;;;;4.35;3.75;;;;;;;;;;5021230;28;20174;-88
2022/08/30 11:15:21;;;;;;;4.20;3.80;;;;;;;;;;5013596;28;20174;-88
2022/08/30 11:18:29;;;;;;;4.30;3.78;;;;;;;;;;5036471;28;20516;-88
2022/08/30 11:21:37;;;;;;;4.35;3.75;;;;;;;;;;5013996;28;20617;-88
2022/08/30 11:25:02;;;;;;;7.80;4.20;;;;;;;;;;5024899;28;20181;-88
2022/08/30 11:28:07;;;;;;;4.35;3.95;;;;;;;;;;5013424;28;20189;-88
2022/08/30 11:31:17;;;;;;;6.38;3.85;;;;;;;;;;5036089;28;20178;-88
2022/08/30 11:34:46;;;;;;;5.90;4.03;;;;;;;;;;5013355;28;20185;-88
2022/08/30 11:37:50;;;;;;;4.30;3.88;;;;;;;;;;5013088;28;20256;-88
2022/08/30 11:40:54;;;;;;;6.32;3.70;;;;;;;;;;5013112;28;20205;-88
2022/08/30 11:44:20;;;;;;;3.90;3.47;;;;;;;;;;5013135;28;20201;-88
2022/08/30 11:47:47;;;;;;;6.53;3.58;;;;;;;;;;5024182;28;20687;-88
2022/08/30 11:51:03;;;;;;;5.15;4.30;;;;;;;;;;5013235;28;20181;-88
2022/08/30 11:54:17;;;;;;;4.03;3.53;;;;;;;;;;5013372;28;20182;-88
2022/08/30 11:57:53;;;;;;;4.68;3.85;;;;;;;;;;5012775;28;20225;-88
2022/08/30 12:01:20;;;;;;;5.13;3.90;;;;;;;;;;5024044;28;20185;-88
2022/08/30 12:04:41;;;;;;;4.75;3.65;;;;;;;;;;5024229;28;20173;-88
2022/08/30 12:07:58;;;;;;;4.97;4.00;;;;;;;;;;5012643;28;20209;-88
2022/08/30 12:11:09;;;;;;;7.63;3.88;;;;;;;;;;5012799;28;20182;-88
2022/08/30 12:14:34;;;;;;;7.53;3.78;;;;;;;;;;5015559;28;20206;-87
2022/08/30 12:21:22;;;;;;;4.63;3.92;;;;;;;;;;5003903;28;20193;-87
2022/08/30 12:24:42;;;;;;;7.20;4.32;;;;;;;;;;5005579;28;20190;-87
2022/08/30 12:27:46;;;;;;;5.57;4.00;;;;;;;;;;5034856;28;20217;-87
2022/08/30 12:30:52;;;;;;;6.03;3.67;;;;;;;;;;5023232;28;20192;-87
2022/08/30 12:33:59;;;;;;;4.25;3.63;;;;;;;;;;5023882;28;20196;-87
2022/08/30 12:37:09;;;;;;;5.13;4.10;;;;;;;;;;5011671;28;20224;-87
2022/08/30 12:40:19;;;;;;;3.92;3.50;;;;;;;;;;5023332;28;20205;-87
2022/08/30 12:43:36;;;;;;;22.80;3.97;;;;;;;;;;5012464;28;20181;-88
2022/08/30 12:46:44;;;;;;;5.88;3.58;;;;;;;;;;5023740;28;20220;-88
2022/08/30 12:49:49;;;;;;;7.00;3.78;;;;;;;;;;5011839;28;20652;-87
2022/08/30 12:53:09;;;;;;;4.57;4.15;;;;;;;;;;5012232;28;20652;-87
2022/08/30 12:56:15;;;;;;;6.75;4.07;;;;;;;;;;5023203;28;20235;-87
2022/08/30 12:59:44;;;;;;;10.55;4.50;;;;;;;;;;5011886;28;20192;-87
2022/08/30 13:02:52;;;;;;;7.88;3.38;;;;;;;;;;5023750;28;20363;-87
2022/08/30 13:05:56;;;;;;;7.65;3.67;;;;;;;;;;5011972;28;20216;-86
2022/08/30 13:09:03;;;;;;;4.93;3.67;;;;;;;;;;5023079;28;20170;-86
2022/08/30 13:12:20;;;;;;;13.32;4.53;;;;;;;;;;5022519;28;20200;-85
2022/08/30 13:15:34;;;;;;;4.18;3.65;;;;;;;;;;5045393;28;20196;-86
2022/08/30 13:18:38;;;;;;;5.95;4.28;;;;;;;;;;5022593;28;20185;-88
2022/08/30 13:21:51;;;;;;;5.05;3.38;;;;;;;;;;5022928;28;20185;-88
2022/08/30 13:24:55;;;;;;;5.03;3.50;;;;;;;;;;5045408;28;20207;-86
2022/08/30 13:28:01;;;;;;;7.53;3.13;;;;;;;;;;5022595;28;20186;-86
2022/08/30 13:31:05;;;;;;;4.40;3.47;;;;;;;;;;5022400;28;20197;-86
2022/08/30 13:34:09;;;;;;;4.28;3.67;;;;;;;;;;5022448;28;20185;-86
2022/08/30 13:37:18;;;;;;;5.25;3.70;;;;;;;;;;5021591;28;20229;-86
2022/08/30 13:40:23;;;;;;;6.93;2.92;;;;;;;;;;5021925;28;20197;-86
2022/08/30 13:43:27;;;;;;;4.50;3.42;;;;;;;;;;5011173;28;20608;-86
2022/08/30 13:46:31;;;;;;;4.22;3.40;;;;;;;;;;5021819;28;20221;-86
2022/08/30 13:49:38;;;;;;;4.40;4.00;;;;;;;;;;5010937;28;20185;-86
2022/08/30 13:52:42;;;;;;;4.47;3.70;;;;;;;;;;5010819;28;20177;-86
2022/08/30 13:55:46;;;;;;;4.60;3.53;;;;;;;;;;5033385;28;20217;-86
2022/08/30 13:58:50;;;;;;;8.13;3.75;;;;;;;;;;5032292;28;20202;-86
2022/08/30 14:01:55;;;;;;;3.83;3.40;;;;;;;;;;4992733;28;20660;-88
2022/08/30 14:04:59;;;;;;;5.90;3.45;;;;;;;;;;5013556;28;20675;-87
2022/08/30 14:08:05;;;;;;;4.93;3.72;;;;;;;;;;5019772;28;20185;-86
2022/08/30 14:11:11;;;;;;;5.15;3.58;;;;;;;;;;5022321;28;20185;-88
2022/08/30 14:14:16;;;;;;;5.55;3.92;;;;;;;;;;5022343;28;20185;-87
2022/08/30 14:17:24;;;;;;;4.90;3.53;;;;;;;;;;5021397;28;20229;-86
2022/08/30 14:20:28;;;;;;;7.05;3.90;;;;;;;;;;5021885;28;20185;-87
2022/08/30 14:23:32;;;;;;;7.78;3.90;;;;;;;;;;5011257;28;20181;-87
2022/08/30 14:26:47;;;;;;;8.52;4.57;;;;;;;;;;5022328;28;20208;-87
2022/08/30 14:29:51;;;;;;;8.50;3.65;;;;;;;;;;5014317;28;20202;-84
2022/08/30 14:32:55;;;;;;;8.05;4.53;;;;;;;;;;5004794;28;20186;-84
2022/08/30 14:36:00;;;;;;;16.00;4.43;;;;;;;;;;5026212;28;20221;-89
2022/08/30 14:39:06;;;;;;;18.35;4.60;;;;;;;;;;5013316;28;20194;-89
2022/08/30 14:42:11;;;;;;;8.13;3.90;;;;;;;;;;5020030;28;20193;-88
2022/08/30 14:45:16;;;;;;;4.35;3.55;;;;;;;;;;5022485;28;20186;-88
2022/08/30 14:48:20;;;;;;;7.43;4.07;;;;;;;;;;5016827;28;20194;-88
2022/08/30 14:51:24;;;;;;;4.30;3.60;;;;;;;;;;5006980;28;20193;-88
2022/08/30 14:54:30;;;;;;;5.13;4.10;;;;;;;;;;5026191;28;20205;-88
2022/08/30 14:57:34;;;;;;;5.82;3.67;;;;;;;;;;5026540;28;20220;-92
2022/08/30 15:00:38;;;;;;;47.28;6.13;;;;;;;;;;5026071;28;20550;-85
2022/08/30 15:03:42;;;;;;;9.45;3.92;;;;;;;;;;5037102;28;20188;-84
2022/08/30 15:06:47;;;;;;;7.32;3.50;;;;;;;;;;5014384;28;20553;-84
2022/08/30 15:09:51;;;;;;;4.90;4.03;;;;;;;;;;5018286;28;20178;-84
2022/08/30 15:12:55;;;;;;;4.78;3.92;;;;;;;;;;5026807;28;20189;-85
2022/08/30 15:16:00;;;;;;;5.40;3.95;;;;;;;;;;5014157;28;20228;-84
2022/08/30 15:19:07;;;;;;;11.50;4.45;;;;;;;;;;5005414;28;20637;-84
2022/08/30 15:22:11;;;;;;;19.60;4.82;;;;;;;;;;5004979;28;20204;-84
2022/08/30 15:25:16;;;;;;;4.45;3.92;;;;;;;;;;5016996;28;20185;-85
2022/08/30 15:28:20;;;;;;;5.97;3.97;;;;;;;;;;5004836;28;20178;-84
2022/08/30 15:31:30;;;;;;;14.55;4.25;;;;;;;;;;5007586;28;20174;-85
2022/08/30 15:34:34;;;;;;;5.15;4.35;;;;;;;;;;5017411;28;20552;-84
2022/08/30 15:37:38;;;;;;;7.07;5.00;;;;;;;;;;5016871;23;20692;-88
2022/08/30 15:40:44;;;;;;;6.32;4.72;;;;;;;;;;4935681;29;20186;-85
2022/08/30 15:43:48;;;;;;;7.72;5.00;;;;;;;;;;4949373;28;20206;-85
2022/08/30 15:46:52;;;;;;;7.78;4.88;;;;;;;;;;4965263;28;20225;-85
2022/08/30 15:50:03;;;;;;;8.98;5.57;;;;;;;;;;4965789;28;20176;-85
2022/08/30 15:53:07;;;;;;;9.40;5.15;;;;;;;;;;4954487;28;20608;-87
2022/08/30 15:56:12;;;;;;;5.05;4.55;;;;;;;;;;4976348;28;20179;-85
2022/08/30 15:59:17;;;;;;;5.78;5.00;;;;;;;;;;4945201;29;20184;-86
2022/08/30 16:02:21;;;;;;;6.32;5.07;;;;;;;;;;4957318;29;20673;-86
2022/08/30 16:05:28;;;;;;;8.95;5.10;;;;;;;;;;4946285;29;20206;-86
2022/08/30 16:08:32;;;;;;;6.35;4.90;;;;;;;;;;4945794;29;20256;-87
2022/08/30 16:11:36;;;;;;;17.30;5.10;;;;;;;;;;4956984;29;20182;-86
2022/08/30 16:14:40;;;;;;;7.75;5.07;;;;;;;;;;4947461;29;20190;-85
2022/08/30 16:17:45;;;;;;;5.80;4.95;;;;;;;;;;4957774;29;20700;-87
2022/08/30 16:21:01;;;;;;;6.78;4.80;;;;;;;;;;4957749;29;20189;-86
2022/08/30 16:24:07;;;;;;;8.05;5.60;;;;;;;;;;4936393;29;20187;-86
2022/08/30 16:27:11;;;;;;;9.13;5.55;;;;;;;;;;4969167;28;20224;-86
2022/08/30 16:30:15;;;;;;;6.63;4.95;;;;;;;;;;4956478;29;20544;-87
2022/08/30 16:33:20;;;;;;;9.13;5.38;;;;;;;;;;4945492;29;20177;-87
2022/08/30 16:36:24;;;;;;;9.02;5.20;;;;;;;;;;4945621;28;20637;-86
2022/08/30 16:39:29;;;;;;;7.82;4.40;;;;;;;;;;4945471;29;20198;-86
2022/08/30 16:42:33;;;;;;;7.53;5.28;;;;;;;;;;4945031;29;20202;-87
2022/08/30 16:45:37;;;;;;;15.25;5.45;;;;;;;;;;4934532;29;20666;-86
2022/08/30 16:48:43;;;;;;;11.07;5.30;;;;;;;;;;4934167;29;20175;-88
2022/08/30 16:51:47;;;;;;;162.38;14.05;;;;;;;;;;4934341;29;20176;-89
2022/08/30 16:54:52;;;;;;;36.25;6.57;;;;;;;;;;4956467;29;20351;-88
2022/08/30 16:57:59;;;;;;;8.57;5.38;;;;;;;;;;4923591;29;20235;-88
2022/08/30 17:01:03;;;;;;;80.75;8.70;;;;;;;;;;4934554;29;20188;-88
2022/08/30 17:04:09;;;;;;;17.03;5.70;;;;;;;;;;4956258;29;20189;-88
2022/08/30 17:07:13;;;;;;;8.30;5.10;;;;;;;;;;4945608;29;20719;-88
2022/08/30 17:10:18;;;;;;;6.57;5.23;;;;;;;;;;4942795;28;20193;-88
2022/08/30 17:13:22;;;;;;;17.93;5.40;;;;;;;;;;4959286;28;20182;-86
2022/08/30 17:16:28;;;;;;;8.13;5.90;;;;;;;;;;4965320;28;20199;-87
2022/08/30 17:19:32;;;;;;;7.37;5.33;;;;;;;;;;4965419;28;20333;-87
2022/08/30 17:22:36;;;;;;;25.23;6.17;;;;;;;;;;4964612;28;20637;-86
2022/08/30 17:25:42;;;;;;;133.97;14.07;;;;;;;;;;4945422;29;20210;-86
2022/08/30 17:28:46;;;;;;;12.73;5.87;;;;;;;;;;4945683;29;20188;-86
2022/08/30 17:31:50;;;;;;;23.10;5.40;;;;;;;;;;4956932;29;20188;-86
2022/08/30 17:34:54;;;;;;;14.03;5.80;;;;;;;;;;4945548;29;20586;-86
2022/08/30 17:37:58;;;;;;;27.37;6.57;;;;;;;;;;4956459;29;20234;-87
2022/08/30 17:41:04;;;;;;;20.33;6.33;;;;;;;;;;4956722;29;20206;-86
2022/08/30 17:44:08;;;;;;;15.60;5.47;;;;;;;;;;4945204;29;20197;-86
2022/08/30 17:47:12;;;;;;;15.27;5.73;;;;;;;;;;4945151;29;20234;-86
2022/08/30 17:50:16;;;;;;;12.67;5.37;;;;;;;;;;4945258;29;20194;-87
2022/08/30 17:53:20;;;;;;;8.73;5.13;;;;;;;;;;4945804;29;20197;-86
2022/08/30 17:56:28;;;;;;;12.17;5.87;;;;;;;;;;4956122;29;20180;-86
2022/08/30 17:59:33;;;;;;;8.40;5.00;;;;;;;;;;4956307;29;20192;-88
2022/08/30 18:02:37;;;;;;;8.30;5.37;;;;;;;;;;4944922;29;20184;-86
2022/08/30 18:05:44;;;;;;;5.93;4.90;;;;;;;;;;4960435;28;20196;-86
2022/08/30 18:08:48;;;;;;;6.60;5.00;;;;;;;;;;4953400;28;20183;-87
2022/08/30 18:11:53;;;;;;;5.80;4.87;;;;;;;;;;4974913;28;20183;-86
2022/08/30 18:14:57;;;;;;;8.30;5.97;;;;;;;;;;4975441;28;20183;-86
2022/08/30 18:18:01;;;;;;;5.97;5.40;;;;;;;;;;4963465;28;20228;-86
2022/08/30 18:21:12;;;;;;;8.10;5.33;;;;;;;;;;4975329;28;20187;-86
2022/08/30 18:24:16;;;;;;;7.53;5.00;;;;;;;;;;4953464;28;20183;-85
2022/08/30 18:27:20;;;;;;;6.03;4.77;;;;;;;;;;4963866;28;20218;-85
2022/08/30 18:30:26;;;;;;;37.53;8.37;;;;;;;;;;4953238;28;20527;-85
2022/08/30 18:33:30;;;;;;;37.53;6.83;;;;;;;;;;4956332;28;20189;-85
2022/08/30 18:36:34;;;;;;;16.27;6.03;;;;;;;;;;4963496;28;20253;-85
2022/08/30 18:39:40;;;;;;;6.83;4.87;;;;;;;;;;4964167;28;20190;-85